Time;durP1;ratioP1;P1;durP2;ratioP2;P2;SDS_P1;SDS_P2;PMS_P1;PMS_P2;Temp;Humidity;BMP_temperature;BMP_pressure;BME280_temperature;BME280_humidity;BME280_pressure;Samples;Min_cycle;Max_cycle;Signal;HPM_P1;HPM_P2
2022/09/30 00:00:26;;;;;;;6.20;5.57;;;8.20;99.90;;;;;;5053724;28;20086;-59
2022/09/30 00:02:53;;;;;;;6.95;5.55;;;8.30;99.90;;;;;;5053823;28;20041;-59
2022/09/30 00:05:19;;;;;;;6.55;5.80;;;;;;;;;;5053236;28;20128;-59
2022/09/30 00:07:49;;;;;;;9.25;6.03;;;8.30;99.90;;;;;;5053397;28;20045;-59
2022/09/30 00:10:16;;;;;;;7.65;6.32;;;8.40;99.90;;;;;;5053481;28;20045;-59
2022/09/30 00:12:43;;;;;;;8.90;6.13;;;9.00;99.90;;;;;;5053424;28;20488;-59
2022/09/30 00:15:09;;;;;;;7.57;6.22;;;8.20;99.90;;;;;;5053737;28;20033;-59
2022/09/30 00:17:35;;;;;;;10.45;6.18;;;;;;;;;;5053260;28;20068;-59
2022/09/30 00:20:02;;;;;;;7.47;6.07;;;8.10;99.90;;;;;;5053176;28;20071;-59
2022/09/30 00:22:31;;;;;;;8.18;6.40;;;8.00;99.90;;;;;;5053478;28;20040;-59
2022/09/30 00:24:57;;;;;;;8.23;6.45;;;8.20;99.90;;;;;;5053352;28;20041;-59
2022/09/30 00:27:24;;;;;;;8.32;6.47;;;6.80;99.90;;;;;;5053188;28;20086;-59
2022/09/30 00:29:49;;;;;;;8.98;6.30;;;8.10;99.90;;;;;;5053201;28;20622;-59
2022/09/30 00:32:16;;;;;;;9.15;7.07;;;8.40;99.90;;;;;;5053120;28;20048;-59
2022/09/30 00:34:43;;;;;;;6.93;6.22;;;7.90;99.90;;;;;;5053021;28;20053;-59
2022/09/30 00:37:10;;;;;;;8.68;7.18;;;7.90;99.90;;;;;;5053141;28;20045;-59
2022/09/30 00:39:36;;;;;;;9.13;6.75;;;8.70;99.90;;;;;;5053264;28;20116;-59
2022/09/30 00:42:06;;;;;;;8.60;6.90;;;7.90;99.90;;;;;;5053323;28;20560;-59
2022/09/30 00:45:02;;;;;;;8.52;7.30;;;7.90;99.90;;;;;;5052960;28;20443;-59
2022/09/30 00:47:35;;;;;;;;;;;7.90;99.90;;;;;;5035613;28;20116;-59
2022/09/30 00:50:21;;;;;;;11.25;8.38;;;8.00;99.90;;;;;;5053217;28;19917;-63
2022/09/30 00:52:54;;;;;;;13.93;8.70;;;8.20;99.90;;;;;;5051763;28;20090;-59
2022/09/30 00:55:31;;;;;;;10.85;8.77;;;7.70;99.90;;;;;;5052918;28;20504;-59
2022/09/30 00:58:00;;;;;;;11.80;9.60;;;8.40;99.90;;;;;;5053175;28;20037;-59
2022/09/30 01:00:26;;;;;;;10.55;8.23;;;7.90;99.90;;;;;;5055102;28;20045;-59
2022/09/30 01:02:53;;;;;;;11.02;9.32;;;7.60;99.90;;;;;;5057110;28;20055;-59
2022/09/30 01:05:25;;;;;;;9.82;8.70;;;7.90;99.90;;;;;;5056632;28;20401;-59
2022/09/30 01:07:52;;;;;;;10.30;9.13;;;7.80;99.90;;;;;;5056822;28;20045;-59
2022/09/30 01:10:18;;;;;;;13.77;10.25;;;7.80;99.90;;;;;;5056873;28;20491;-59
2022/09/30 01:12:44;;;;;;;11.27;8.88;;;7.80;99.90;;;;;;5056946;28;20033;-59
2022/09/30 01:15:15;;;;;;;12.27;9.30;;;7.90;99.90;;;;;;5056611;28;20131;-59
2022/09/30 01:17:58;;;;;;;10.98;9.27;;;7.80;99.90;;;;;;5055375;28;20061;-59
2022/09/30 01:20:45;;;;;;;9.38;8.38;;;7.70;99.90;;;;;;5056425;28;20056;-59
2022/09/30 01:23:23;;;;;;;11.00;9.40;;;7.80;99.90;;;;;;5056845;28;20048;-59
2022/09/30 01:26:09;;;;;;;11.50;9.70;;;7.80;99.90;;;;;;5056708;28;20149;-59
2022/09/30 01:28:53;;;;;;;;;;;7.70;99.90;;;;;;5056135;28;20443;-59
2022/09/30 01:31:31;;;;;;;9.98;8.75;;;7.50;99.90;;;;;;5056691;28;19948;-59
2022/09/30 01:34:15;;;;;;;11.95;9.48;;;8.80;99.90;;;;;;5056580;28;20037;-59
2022/09/30 01:36:55;;;;;;;12.98;10.75;;;7.70;99.90;;;;;;5055261;28;20116;-59
2022/09/30 01:39:32;;;;;;;16.80;11.63;;;7.70;99.90;;;;;;5056230;28;20056;-59
2022/09/30 01:42:31;;;;;;;14.43;11.27;;;8.30;99.90;;;;;;5056581;28;20044;-59
2022/09/30 01:45:17;;;;;;;17.05;11.52;;;8.30;99.90;;;;;;5039271;28;20057;-59
2022/09/30 01:47:57;;;;;;;16.17;11.55;;;7.80;99.90;;;;;;5056177;28;20119;-59
2022/09/30 01:50:37;;;;;;;14.95;11.98;;;8.90;99.90;;;;;;5056364;28;20052;-59
2022/09/30 01:53:09;;;;;;;13.38;10.98;;;7.90;99.90;;;;;;5056086;28;20519;-59
2022/09/30 01:55:43;;;;;;;14.25;10.70;;;7.80;99.90;;;;;;5056070;28;20041;-59
2022/09/30 01:58:26;;;;;;;12.75;11.20;;;7.80;99.90;;;;;;5054945;28;20487;-58
2022/09/30 02:01:01;;;;;;;14.27;11.25;;;8.30;99.90;;;;;;5055971;28;20417;-58
2022/09/30 02:03:58;;;;;;;12.77;10.80;;;7.80;99.90;;;;;;5055723;28;20049;-59
2022/09/30 02:06:36;;;;;;;13.32;9.63;;;7.70;99.90;;;;;;5047313;28;20045;-59
2022/09/30 02:09:14;;;;;;;10.57;9.00;;;7.80;99.90;;;;;;5055997;28;20041;-59
2022/09/30 02:11:41;;;;;;;10.95;8.82;;;8.00;99.90;;;;;;5055692;28;20374;-59
2022/09/30 02:14:20;;;;;;;9.90;8.48;;;7.60;99.90;;;;;;5055735;28;20037;-60
2022/09/30 02:17:06;;;;;;;9.43;7.97;;;7.20;99.90;;;;;;5055553;28;20432;-60
2022/09/30 02:19:45;;;;;;;8.80;7.50;;;8.20;99.90;;;;;;5055329;28;20084;-59
2022/09/30 02:22:30;;;;;;;8.65;7.43;;;7.70;99.90;;;;;;5055637;28;20058;-59
2022/09/30 02:25:03;;;;;;;8.50;7.60;;;7.40;99.90;;;;;;5054036;28;20045;-60
2022/09/30 02:27:41;;;;;;;8.18;7.38;;;7.30;99.90;;;;;;5055393;28;20043;-60
2022/09/30 02:30:12;;;;;;;10.75;7.63;;;7.20;99.90;;;;;;5055661;28;20056;-60
2022/09/30 02:32:57;;;;;;;10.02;7.80;;;7.10;99.90;;;;;;5055496;28;20048;-59
2022/09/30 02:35:34;;;;;;;8.80;7.67;;;7.00;99.90;;;;;;5055267;28;20085;-60
2022/09/30 02:38:07;;;;;;;8.35;7.45;;;7.10;99.90;;;;;;5055462;28;20056;-60
2022/09/30 02:40:51;;;;;;;9.85;8.73;;;6.90;99.90;;;;;;5055340;28;20041;-59
2022/09/30 02:43:21;;;;;;;9.38;8.38;;;;;;;;;;5055154;28;20071;-59
2022/09/30 02:46:25;;;;;;;10.98;9.00;;;6.90;99.90;;;;;;5054913;28;20044;-59
2022/09/30 02:49:12;;;;;;;11.00;9.35;;;7.20;99.90;;;;;;5053894;28;20080;-59
2022/09/30 02:52:04;;;;;;;11.57;8.68;;;6.70;99.90;;;;;;5053699;28;20073;-60
2022/09/30 02:54:51;;;;;;;13.23;9.88;;;6.80;99.90;;;;;;5053524;28;20053;-59
2022/09/30 02:57:18;;;;;;;12.43;10.00;;;;;;;;;;5055028;28;20037;-60
2022/09/30 02:59:51;;;;;;;10.23;9.00;;;6.70;99.90;;;;;;5054894;28;20116;-60
2022/09/30 03:02:17;;;;;;;11.55;9.20;;;;;;;;;;5054370;28;20128;-59
2022/09/30 03:04:45;;;;;;;12.55;9.52;;;6.20;99.90;;;;;;5054454;28;20060;-60
2022/09/30 03:07:12;;;;;;;10.70;9.05;;;6.50;99.90;;;;;;5053739;28;20121;-60
2022/09/30 03:09:38;;;;;;;11.70;10.00;;;6.70;99.90;;;;;;5054627;28;20472;-60
2022/09/30 03:12:29;;;;;;;16.77;9.90;;;6.60;99.90;;;;;;5053440;28;20041;-60
2022/09/30 03:15:07;;;;;;;11.27;9.65;;;6.70;99.90;;;;;;5054561;28;20389;-60
2022/09/30 03:17:39;;;;;;;11.52;10.32;;;6.50;99.90;;;;;;5053479;28;20135;-58
2022/09/30 03:20:11;;;;;;;11.80;10.10;;;5.90;99.90;;;;;;5054317;28;20049;-59
2022/09/30 03:23:02;;;;;;;15.82;10.30;;;6.70;99.90;;;;;;5053901;28;20041;-58
2022/09/30 03:25:40;;;;;;;16.02;11.73;;;7.00;99.90;;;;;;5054300;28;20081;-58
2022/09/30 03:28:14;;;;;;;15.10;12.07;;;6.50;99.90;;;;;;5053408;28;20117;-59
2022/09/30 03:30:58;;;;;;;13.30;11.90;;;6.10;99.90;;;;;;5054193;28;20041;-58
2022/09/30 03:34:14;;;;;;;13.18;11.45;;;6.60;99.90;;;;;;5054307;28;20032;-58
2022/09/30 03:37:07;;;;;;;16.90;12.30;;;6.40;99.90;;;;;;5012355;28;20121;-58
2022/09/30 03:39:49;;;;;;;15.52;12.02;;;7.20;99.90;;;;;;5012244;28;20512;-59
2022/09/30 03:42:25;;;;;;;14.60;11.82;;;5.60;99.90;;;;;;4995838;28;20137;-58
2022/09/30 03:45:03;;;;;;;16.38;11.77;;;6.60;99.90;;;;;;5012156;28;20490;-58
2022/09/30 03:47:34;;;;;;;12.35;10.82;;;6.50;99.90;;;;;;5012279;28;20042;-58
2022/09/30 03:50:07;;;;;;;12.77;10.20;;;6.50;99.90;;;;;;5012216;28;20151;-58
2022/09/30 03:52:36;;;;;;;15.48;11.90;;;6.30;99.90;;;;;;5012000;28;20497;-58
2022/09/30 03:55:04;;;;;;;14.57;12.55;;;6.30;99.90;;;;;;5011509;28;20054;-59
2022/09/30 03:57:30;;;;;;;14.40;11.88;;;;;;;;;;5011932;28;20053;-58
2022/09/30 03:59:58;;;;;;;15.90;11.82;;;6.80;99.90;;;;;;5010599;28;20375;-58
2022/09/30 04:02:24;;;;;;;15.45;12.20;;;6.50;99.90;;;;;;4976831;28;20045;-59
2022/09/30 04:04:50;;;;;;;14.60;11.93;;;6.20;99.90;;;;;;5008612;28;20057;-59
2022/09/30 04:07:16;;;;;;;18.58;13.60;;;;;;;;;;5028437;28;20051;-58
2022/09/30 04:09:43;;;;;;;28.13;14.80;;;;;;;;;;5051537;28;20037;-58
2022/09/30 04:12:10;;;;;;;25.63;14.70;;;;;;;;;;5051516;28;20485;-58
2022/09/30 04:14:36;;;;;;;30.65;14.20;;;6.10;99.90;;;;;;5052061;28;20091;-58
2022/09/30 04:17:04;;;;;;;26.42;14.85;;;6.50;99.90;;;;;;5053451;28;20433;-59
2022/09/30 04:19:30;;;;;;;25.83;16.40;;;;;;;;;;5052384;28;20057;-58
2022/09/30 04:21:56;;;;;;;24.38;14.15;;;6.40;99.90;;;;;;5052169;28;20480;-58
2022/09/30 04:24:24;;;;;;;20.10;14.02;;;6.20;99.90;;;;;;5053475;28;20041;-58
2022/09/30 04:26:50;;;;;;;116.47;18.02;;;6.30;99.90;;;;;;5053426;28;20033;-58
2022/09/30 04:29:16;;;;;;;81.85;16.33;;;6.50;99.90;;;;;;5053393;28;20040;-58
2022/09/30 04:31:42;;;;;;;71.82;17.38;;;;;;;;;;5052130;28;20457;-58
2022/09/30 04:34:10;;;;;;;61.45;15.43;;;7.30;99.90;;;;;;5052231;28;20093;-58
2022/09/30 04:36:36;;;;;;;110.28;18.30;;;6.30;99.90;;;;;;5053419;28;20045;-59
2022/09/30 04:39:03;;;;;;;111.72;16.17;;;6.20;99.90;;;;;;5053422;28;20481;-58
2022/09/30 04:41:31;;;;;;;183.70;17.58;;;;;;;;;;5053058;28;20114;-58
2022/09/30 04:43:57;;;;;;;35.15;12.52;;;7.00;99.90;;;;;;5053113;28;20059;-58
2022/09/30 04:46:26;;;;;;;84.50;13.40;;;5.40;99.90;;;;;;5053151;28;20044;-58
2022/09/30 04:48:51;;;;;;;29.42;12.75;;;6.40;99.90;;;;;;5051941;28;20041;-58
2022/09/30 04:51:20;;;;;;;132.50;16.45;;;6.80;99.90;;;;;;5052884;28;20108;-58
2022/09/30 04:53:49;;;;;;;20.58;12.27;;;6.40;99.90;;;;;;5052769;28;20539;-58
2022/09/30 04:56:18;;;;;;;19.58;11.38;;;7.20;99.90;;;;;;5052752;28;20037;-58
2022/09/30 04:58:44;;;;;;;37.17;12.65;;;6.80;99.90;;;;;;5052945;28;20059;-58
2022/09/30 05:01:13;;;;;;;15.27;11.57;;;6.20;99.90;;;;;;5052708;28;20071;-58
2022/09/30 05:03:40;;;;;;;88.15;13.45;;;6.60;99.90;;;;;;5051331;28;20041;-58
2022/09/30 05:06:07;;;;;;;22.63;11.73;;;6.30;99.90;;;;;;5051363;28;20128;-58
2022/09/30 05:08:33;;;;;;;27.52;12.40;;;;;;;;;;5052929;28;20409;-58
2022/09/30 05:11:01;;;;;;;47.83;14.43;;;6.10;99.90;;;;;;5045466;28;20069;-59
2022/09/30 05:13:35;;;;;;;69.90;14.43;;;5.90;99.90;;;;;;5075189;28;20052;-58
2022/09/30 05:16:07;;;;;;;26.60;13.57;;;6.10;99.90;;;;;;5038271;28;20091;-58
2022/09/30 05:18:33;;;;;;;14.73;11.77;;;4.70;99.90;;;;;;5049581;28;20132;-58
2022/09/30 05:21:03;;;;;;;51.38;13.10;;;6.00;99.90;;;;;;5051261;28;20056;-58
2022/09/30 05:23:30;;;;;;;37.42;11.68;;;5.60;99.90;;;;;;5051569;28;20039;-58
2022/09/30 05:26:00;;;;;;;55.38;12.15;;;5.60;99.90;;;;;;5051343;28;20109;-58
2022/09/30 05:28:28;;;;;;;22.50;11.27;;;;;;;;;;5052426;28;20029;-58
2022/09/30 05:30:59;;;;;;;27.33;10.55;;;6.10;99.90;;;;;;5049921;28;20045;-58
2022/09/30 05:33:28;;;;;;;16.42;10.20;;;6.10;99.90;;;;;;5048678;28;20033;-58
2022/09/30 05:35:54;;;;;;;44.38;10.60;;;6.20;99.90;;;;;;5049434;28;20521;-58
2022/09/30 05:38:20;;;;;;;31.00;11.15;;;;;;;;;;5049335;28;20048;-58
2022/09/30 05:40:46;;;;;;;14.10;10.95;;;6.40;99.90;;;;;;5050577;28;20174;-58
2022/09/30 05:43:14;;;;;;;20.02;11.73;;;5.80;99.90;;;;;;5052665;28;20138;-59
2022/09/30 05:45:56;;;;;;;34.17;11.85;;;5.90;99.90;;;;;;5053619;28;20102;-58
2022/09/30 05:48:27;;;;;;;20.60;13.77;;;6.60;99.90;;;;;;5054947;28;20048;-59
2022/09/30 05:50:57;;;;;;;15.32;11.75;;;5.90;99.90;;;;;;5056060;28;20272;-59
2022/09/30 05:53:23;;;;;;;17.63;12.35;;;5.30;99.90;;;;;;5056026;28;20041;-60
2022/09/30 05:55:50;;;;;;;19.25;12.90;;;5.70;99.90;;;;;;5056114;28;20080;-59
2022/09/30 05:58:16;;;;;;;15.43;11.82;;;5.70;99.90;;;;;;5056060;28;20137;-59
2022/09/30 06:00:45;;;;;;;18.38;12.57;;;6.20;99.90;;;;;;5055022;28;20049;-59
2022/09/30 06:03:16;;;;;;;16.70;11.95;;;6.50;99.90;;;;;;5056135;28;20041;-58
2022/09/30 06:05:44;;;;;;;16.63;13.02;;;6.10;99.90;;;;;;5055459;28;20051;-58
2022/09/30 06:08:10;;;;;;;20.02;13.00;;;;;;;;;;5054792;28;20048;-59
2022/09/30 06:10:40;;;;;;;15.90;12.40;;;6.40;99.90;;;;;;5055804;28;20044;-59
2022/09/30 06:13:06;;;;;;;17.80;12.77;;;6.40;99.90;;;;;;5055722;28;20083;-59
2022/09/30 06:15:33;;;;;;;16.77;12.10;;;6.40;99.90;;;;;;5054907;28;20396;-60
2022/09/30 06:17:59;;;;;;;17.45;13.88;;;6.50;99.90;;;;;;5055742;28;20051;-59
2022/09/30 06:20:25;;;;;;;19.25;12.95;;;6.40;99.90;;;;;;5055514;28;20041;-59
2022/09/30 06:22:50;;;;;;;24.35;16.95;;;7.00;99.90;;;;;;5055785;28;20396;-59
2022/09/30 06:25:18;;;;;;;24.60;16.17;;;6.60;99.90;;;;;;5055504;28;20396;-59
2022/09/30 06:27:46;;;;;;;21.95;16.85;;;6.70;99.90;;;;;;5055660;28;20392;-58
2022/09/30 06:30:12;;;;;;;24.90;18.75;;;5.80;99.90;;;;;;5055505;28;20108;-59
2022/09/30 06:32:41;;;;;;;25.90;19.48;;;6.80;99.90;;;;;;5055281;28;20036;-59
2022/09/30 06:35:07;;;;;;;24.75;19.15;;;6.80;99.90;;;;;;5055780;28;20064;-59
2022/09/30 06:37:36;;;;;;;28.92;19.85;;;;;;;;;;5055370;28;20118;-59
2022/09/30 06:40:04;;;;;;;26.63;19.48;;;6.80;99.90;;;;;;5055344;28;20049;-58
2022/09/30 06:42:30;;;;;;;27.35;20.40;;;7.10;99.90;;;;;;5055129;28;20044;-59
2022/09/30 06:44:56;;;;;;;29.67;19.77;;;7.30;99.90;;;;;;5055104;28;20110;-58
2022/09/30 06:47:21;;;;;;;29.60;19.80;;;6.80;99.90;;;;;;5055119;28;20037;-58
2022/09/30 06:49:49;;;;;;;29.10;19.67;;;6.90;99.90;;;;;;5054912;28;20037;-58
2022/09/30 06:52:15;;;;;;;24.08;18.17;;;;;;;;;;5055284;28;20405;-60
2022/09/30 06:54:43;;;;;;;25.15;18.02;;;7.60;99.90;;;;;;5055514;28;20381;-58
2022/09/30 06:57:10;;;;;;;25.88;17.42;;;7.10;99.90;;;;;;5053739;28;20476;-59
2022/09/30 06:59:36;;;;;;;23.60;17.35;;;7.60;99.90;;;;;;5054684;28;20508;-59
2022/09/30 07:02:02;;;;;;;24.60;18.15;;;7.70;99.90;;;;;;5054600;28;20044;-59
2022/09/30 07:04:32;;;;;;;27.27;18.33;;;7.60;99.90;;;;;;5054556;28;20055;-59
2022/09/30 07:06:58;;;;;;;27.55;18.42;;;7.70;99.90;;;;;;5053398;28;20048;-59
2022/09/30 07:09:24;;;;;;;23.30;17.55;;;7.80;99.90;;;;;;5054827;28;20091;-60
2022/09/30 07:11:50;;;;;;;24.67;17.77;;;;;;;;;;5054682;28;20075;-59
2022/09/30 07:14:22;;;;;;;26.83;18.35;;;8.40;99.90;;;;;;5053571;28;20041;-60
2022/09/30 07:16:49;;;;;;;24.52;17.08;;;8.00;99.90;;;;;;5054426;28;20463;-59
2022/09/30 07:19:16;;;;;;;35.20;17.80;;;8.20;99.90;;;;;;5054716;28;20056;-59
2022/09/30 07:21:42;;;;;;;29.27;18.27;;;8.10;99.90;;;;;;5054544;28;20036;-59
2022/09/30 07:24:08;;;;;;;26.92;17.05;;;8.20;99.90;;;;;;5054390;28;20549;-59
2022/09/30 07:26:34;;;;;;;20.92;15.10;;;7.50;99.90;;;;;;5054648;28;20033;-59
2022/09/30 07:29:01;;;;;;;22.63;15.18;;;8.50;99.90;;;;;;5053048;28;20489;-58
2022/09/30 07:31:30;;;;;;;23.15;15.15;;;8.60;99.90;;;;;;5054095;28;20440;-59
2022/09/30 07:33:56;;;;;;;22.60;16.02;;;8.50;99.90;;;;;;5054266;28;20033;-58
2022/09/30 07:36:28;;;;;;;23.08;15.52;;;8.70;99.90;;;;;;5054123;28;20051;-59
2022/09/30 07:38:55;;;;;;;20.42;15.00;;;8.80;99.90;;;;;;5053031;28;20123;-59
2022/09/30 07:41:27;;;;;;;21.38;14.68;;;9.20;99.90;;;;;;5053986;28;20487;-60
2022/09/30 07:43:59;;;;;;;21.80;14.90;;;9.00;99.90;;;;;;5053795;28;20116;-59
2022/09/30 07:46:28;;;;;;;22.67;15.13;;;9.10;99.90;;;;;;5054163;28;20044;-59
2022/09/30 07:49:02;;;;;;;17.77;14.20;;;9.00;99.90;;;;;;5054080;28;20029;-59
2022/09/30 07:51:40;;;;;;;19.63;14.00;;;9.00;99.90;;;;;;5053840;28;20508;-59
2022/09/30 07:54:09;;;;;;;20.75;14.65;;;9.20;99.90;;;;;;5053737;28;20056;-59
2022/09/30 07:56:37;;;;;;;17.15;13.23;;;9.20;99.90;;;;;;5053987;28;20442;-60
2022/09/30 07:59:03;;;;;;;15.43;12.50;;;9.40;99.90;;;;;;5053907;28;20120;-58
2022/09/30 08:01:34;;;;;;;20.48;13.88;;;9.20;99.90;;;;;;5053896;28;20110;-58
2022/09/30 08:04:02;;;;;;;15.38;13.07;;;9.40;99.90;;;;;;5053661;28;20073;-58
2022/09/30 08:06:30;;;;;;;18.30;13.70;;;9.40;99.90;;;;;;5052263;28;20058;-59
2022/09/30 08:08:58;;;;;;;16.88;13.57;;;9.60;99.90;;;;;;5053298;28;20029;-59
2022/09/30 08:11:26;;;;;;;15.45;12.95;;;9.60;99.90;;;;;;5053421;28;20041;-59
2022/09/30 08:13:54;;;;;;;18.88;12.50;;;9.70;99.90;;;;;;5053577;28;20056;-59
2022/09/30 08:16:22;;;;;;;15.23;12.68;;;10.70;99.90;;;;;;5052431;28;20127;-58
2022/09/30 08:18:48;;;;;;;13.57;10.73;;;;;;;;;;5053342;28;20041;-58
2022/09/30 08:21:14;;;;;;;10.63;9.02;;;12.60;99.90;;;;;;5053368;28;20048;-58
2022/09/30 08:23:40;;;;;;;11.20;8.40;;;13.80;99.90;;;;;;5053520;28;20033;-59
2022/09/30 08:26:09;;;;;;;13.20;8.85;;;14.60;99.90;;;;;;5053242;28;20563;-58
2022/09/30 08:28:38;;;;;;;9.43;7.93;;;15.70;99.90;;;;;;5053434;28;20069;-60
2022/09/30 08:31:11;;;;;;;10.20;7.43;;;16.10;99.90;;;;;;5053370;28;20036;-61
2022/09/30 08:33:38;;;;;;;9.25;7.20;;;16.40;99.90;;;;;;5053366;28;20033;-61
2022/09/30 08:36:07;;;;;;;7.65;6.65;;;16.80;99.90;;;;;;5052805;28;20059;-62
2022/09/30 08:38:34;;;;;;;11.00;6.82;;;16.80;99.90;;;;;;5053416;28;20038;-62
2022/09/30 08:41:21;;;;;;;10.32;6.90;;;16.90;99.90;;;;;;5053292;28;20048;-61
2022/09/30 08:44:02;;;;;;;7.95;6.65;;;17.50;99.90;;;;;;5053213;28;20041;-61
2022/09/30 08:46:28;;;;;;;9.20;6.82;;;;;;;;;;5052957;28;20382;-61
2022/09/30 08:49:14;;;;;;;11.48;7.63;;;16.80;99.90;;;;;;5053194;28;20060;-61
2022/09/30 08:51:49;;;;;;;8.45;6.18;;;17.60;99.90;;;;;;5045059;28;20120;-61
2022/09/30 08:54:23;;;;;;;8.77;6.18;;;17.30;99.90;;;;;;5053089;28;20451;-61
2022/09/30 08:56:49;;;;;;;9.57;6.28;;;17.60;99.90;;;;;;5053079;28;20041;-59
2022/09/30 08:59:43;;;;;;;9.43;6.60;;;17.50;99.90;;;;;;5053157;28;20065;-59
2022/09/30 09:02:17;;;;;;;8.57;6.10;;;17.80;99.90;;;;;;5053102;28;20037;-58
2022/09/30 09:04:44;;;;;;;9.93;6.72;;;17.70;99.90;;;;;;5052738;28;20049;-59
2022/09/30 09:07:49;;;;;;;9.18;6.97;;;17.40;99.90;;;;;;5052802;28;20049;-58
2022/09/30 09:10:43;;;;;;;11.68;6.95;;;17.40;99.90;;;;;;5052967;28;20033;-58
2022/09/30 09:13:52;;;;;;;10.60;7.30;;;17.70;99.90;;;;;;5052665;28;20048;-61
2022/09/30 09:16:28;;;;;;;9.65;7.32;;;18.00;99.90;;;;;;5029655;28;20053;-62
2022/09/30 09:19:18;;;;;;;8.85;6.55;;;17.80;99.90;;;;;;5052640;28;20044;-62
2022/09/30 09:21:55;;;;;;;9.82;7.53;;;18.70;99.90;;;;;;5054221;28;20048;-59
2022/09/30 09:24:26;;;;;;;10.93;7.28;;;18.30;99.90;;;;;;5056723;28;20047;-59
2022/09/30 09:26:54;;;;;;;9.10;6.50;;;18.20;99.90;;;;;;5056623;28;20102;-59
2022/09/30 09:29:25;;;;;;;12.10;6.60;;;18.10;99.90;;;;;;5056494;28;20037;-58
2022/09/30 09:31:53;;;;;;;10.55;6.93;;;17.80;99.90;;;;;;5056408;28;20116;-62
2022/09/30 09:34:22;;;;;;;8.63;6.57;;;17.80;99.90;;;;;;5056370;28;20045;-62
2022/09/30 09:36:57;;;;;;;15.50;6.80;;;18.20;99.90;;;;;;5056584;28;20045;-62
2022/09/30 09:39:35;;;;;;;8.43;6.40;;;17.50;99.90;;;;;;5042664;28;20493;-62
2022/09/30 09:42:19;;;;;;;7.67;6.30;;;16.90;99.90;;;;;;5055228;28;20032;-60
2022/09/30 09:45:04;;;;;;;7.30;6.30;;;17.10;99.90;;;;;;5054460;28;20306;-61
2022/09/30 09:47:31;;;;;;;9.35;6.75;;;;;;;;;;5056317;28;20041;-62
2022/09/30 09:50:03;;;;;;;8.57;7.10;;;17.30;99.90;;;;;;5056087;28;20493;-62
2022/09/30 09:52:43;;;;;;;9.90;7.28;;;17.20;99.90;;;;;;5055990;28;20052;-62
2022/09/30 09:55:10;;;;;;;13.52;7.78;;;17.10;99.90;;;;;;5056957;28;20083;-61
2022/09/30 09:57:39;;;;;;;11.50;7.50;;;16.50;99.90;;;;;;5055289;28;20056;-61
2022/09/30 10:03:00;;;;;;;11.00;8.43;;;16.90;99.90;;;;;;5055403;28;20519;-62
2022/09/30 10:05:28;;;;;;;10.32;8.85;;;16.70;99.90;;;;;;5055115;28;20060;-62
2022/09/30 10:08:21;;;;;;;11.35;9.00;;;16.70;99.90;;;;;;5055904;28;20457;-61
2022/09/30 10:10:53;;;;;;;10.32;8.73;;;17.10;99.90;;;;;;5055743;28;20040;-62
2022/09/30 10:13:29;;;;;;;11.77;9.18;;;17.00;99.90;;;;;;5055833;28;20119;-61
2022/09/30 10:15:57;;;;;;;14.02;9.25;;;16.80;99.90;;;;;;5054346;28;20163;-62
2022/09/30 10:18:35;;;;;;;12.60;9.95;;;16.80;99.90;;;;;;5055538;28;20473;-61
2022/09/30 10:21:06;;;;;;;18.98;11.18;;;16.60;99.90;;;;;;5055717;28;20045;-61
2022/09/30 10:23:38;;;;;;;13.82;12.10;;;16.70;99.90;;;;;;5055729;28;20515;-61
2022/09/30 10:26:25;;;;;;;15.15;11.55;;;16.90;99.90;;;;;;5055387;28;20381;-62
2022/09/30 10:28:57;;;;;;;13.52;11.68;;;16.30;99.90;;;;;;5055645;28;20044;-61
2022/09/30 10:31:34;;;;;;;15.70;11.52;;;16.50;99.90;;;;;;5054420;28;20388;-61
2022/09/30 10:34:00;;;;;;;14.98;12.10;;;;;;;;;;5054658;28;20052;-62
2022/09/30 10:36:32;;;;;;;13.52;11.10;;;16.20;99.90;;;;;;5055345;28;20385;-62
2022/09/30 10:39:25;;;;;;;16.33;11.73;;;16.50;99.90;;;;;;5055134;28;20044;-61
2022/09/30 10:42:18;;;;;;;14.00;11.05;;;16.40;99.90;;;;;;5055324;28;20041;-61
2022/09/30 10:44:53;;;;;;;11.48;10.27;;;16.80;99.90;;;;;;5055162;28;20068;-61
2022/09/30 10:47:22;;;;;;;12.20;9.93;;;16.60;99.90;;;;;;5055065;28;20048;-61
2022/09/30 10:50:08;;;;;;;11.50;10.00;;;16.90;99.90;;;;;;5055267;28;20046;-62
2022/09/30 10:52:35;;;;;;;13.57;10.10;;;16.70;99.90;;;;;;5055133;28;20120;-62
2022/09/30 10:55:28;;;;;;;12.50;10.50;;;16.70;99.90;;;;;;5055008;28;20091;-62
2022/09/30 10:58:19;;;;;;;13.18;10.13;;;16.80;99.90;;;;;;5055243;28;20049;-61
2022/09/30 11:00:51;;;;;;;11.18;9.93;;;16.50;99.90;;;;;;5055018;28;20045;-62
2022/09/30 11:03:22;;;;;;;12.32;9.85;;;16.80;99.90;;;;;;5054894;28;20098;-62
2022/09/30 11:05:49;;;;;;;11.32;9.20;;;;;;;;;;5054524;28;20084;-61
2022/09/30 11:08:29;;;;;;;12.07;9.65;;;17.40;99.90;;;;;;5054894;28;20048;-62
2022/09/30 11:11:09;;;;;;;13.68;9.02;;;17.10;99.90;;;;;;5055001;28;20171;-62
2022/09/30 11:13:41;;;;;;;12.85;9.63;;;16.60;99.90;;;;;;5054638;28;20496;-62
2022/09/30 11:16:25;;;;;;;11.77;9.48;;;17.20;99.90;;;;;;5054474;28;20508;-62
2022/09/30 11:19:06;;;;;;;14.60;9.18;;;17.20;99.90;;;;;;5053302;28;20056;-62
2022/09/30 11:21:58;;;;;;;14.35;8.70;;;18.00;99.90;;;;;;5054320;28;20485;-62
2022/09/30 11:24:52;;;;;;;12.30;8.57;;;17.40;99.90;;;;;;5054405;28;20040;-62
2022/09/30 11:27:42;;;;;;;13.35;9.90;;;17.20;99.90;;;;;;5052212;28;20049;-62
2022/09/30 11:30:23;;;;;;;15.05;11.23;;;17.40;99.90;;;;;;5054538;28;20032;-62
2022/09/30 11:33:16;;;;;;;13.82;11.75;;;17.30;99.90;;;;;;5054304;28;20037;-61
2022/09/30 11:36:07;;;;;;;16.75;12.05;;;17.40;99.90;;;;;;5054394;28;20128;-61
2022/09/30 11:38:44;;;;;;;16.73;13.18;;;17.70;99.90;;;;;;5054466;28;20048;-61
2022/09/30 11:41:14;;;;;;;17.08;12.25;;;17.50;99.90;;;;;;5052753;28;20100;-61
2022/09/30 11:44:01;;;;;;;17.88;13.15;;;18.10;99.90;;;;;;5053901;28;20128;-62
2022/09/30 11:46:39;;;;;;;18.17;14.20;;;17.30;99.90;;;;;;5054220;28;20044;-62
2022/09/30 11:49:20;;;;;;;15.68;13.55;;;17.60;99.90;;;;;;5054107;28;20036;-62
2022/09/30 11:52:13;;;;;;;14.80;12.60;;;17.10;99.90;;;;;;5053846;28;20120;-62
2022/09/30 11:55:05;;;;;;;14.30;11.63;;;18.40;99.90;;;;;;5054035;28;20037;-61
2022/09/30 11:57:55;;;;;;;14.73;11.73;;;17.90;99.90;;;;;;5052869;28;20052;-62
2022/09/30 12:00:21;;;;;;;16.92;12.85;;;18.00;99.90;;;;;;5054015;28;20115;-61
2022/09/30 12:03:00;;;;;;;17.15;13.50;;;18.00;99.90;;;;;;5053731;28;20499;-61
2022/09/30 12:05:39;;;;;;;16.25;12.95;;;17.80;99.90;;;;;;5053845;28;20489;-62
2022/09/30 12:08:26;;;;;;;15.43;12.70;;;18.30;99.90;;;;;;5053676;28;20473;-62
2022/09/30 12:11:25;;;;;;;13.98;11.85;;;18.20;99.90;;;;;;5053819;28;20170;-62
2022/09/30 12:14:00;;;;;;;16.08;13.10;;;18.20;99.90;;;;;;5053335;28;20076;-61
2022/09/30 12:16:33;;;;;;;16.35;12.60;;;17.70;99.90;;;;;;5053428;28;20195;-61
2022/09/30 12:19:15;;;;;;;14.95;11.32;;;18.20;99.90;;;;;;5052528;28;20048;-61
2022/09/30 12:21:52;;;;;;;14.68;11.32;;;18.90;99.90;;;;;;5053401;28;20087;-61
2022/09/30 12:24:32;;;;;;;14.00;11.68;;;18.40;99.90;;;;;;5053351;28;20052;-62
2022/09/30 12:27:00;;;;;;;13.77;11.00;;;18.40;99.90;;;;;;5053346;28;20503;-63
2022/09/30 12:32:48;;;;;;;13.30;10.73;;;18.60;99.90;;;;;;5053237;28;20041;-63
2022/09/30 12:35:29;;;;;;;11.73;10.52;;;18.40;99.90;;;;;;5053215;28;20063;-63
2022/09/30 12:38:16;;;;;;;12.02;9.70;;;18.60;99.90;;;;;;5053308;28;20043;-63
2022/09/30 12:40:54;;;;;;;11.43;8.77;;;18.60;99.90;;;;;;5053306;28;20080;-63
2022/09/30 12:43:32;;;;;;;9.52;8.30;;;18.50;99.90;;;;;;5053227;28;20411;-63
2022/09/30 12:46:28;;;;;;;13.77;10.23;;;18.50;99.90;;;;;;5052089;28;20049;-62
2022/09/30 12:49:00;;;;;;;14.05;10.60;;;18.90;99.90;;;;;;5053174;28;20037;-62
2022/09/30 12:51:29;;;;;;;11.52;9.45;;;18.50;99.90;;;;;;5052923;28;20037;-62
2022/09/30 12:54:06;;;;;;;12.00;9.68;;;18.60;99.90;;;;;;5053048;28;20075;-63
2022/09/30 12:56:36;;;;;;;10.45;8.77;;;18.20;99.90;;;;;;5037544;28;20369;-62
2022/09/30 12:59:03;;;;;;;10.02;8.50;;;18.40;99.90;;;;;;5056019;28;20170;-62
2022/09/30 13:01:31;;;;;;;10.50;9.50;;;18.30;99.90;;;;;;5057362;28;20037;-62
2022/09/30 13:04:00;;;;;;;11.50;9.70;;;18.80;99.90;;;;;;5056837;28;20041;-62
2022/09/30 13:06:44;;;;;;;13.30;10.43;;;18.20;99.90;;;;;;5056718;28;20508;-62
2022/09/30 13:09:10;;;;;;;12.40;10.55;;;18.10;99.90;;;;;;5056791;28;20044;-62
2022/09/30 13:11:49;;;;;;;11.80;10.25;;;18.20;99.90;;;;;;5055714;28;20401;-62
2022/09/30 13:14:32;;;;;;;11.43;9.93;;;18.20;99.90;;;;;;5056088;28;20057;-62
2022/09/30 13:17:11;;;;;;;10.63;9.48;;;18.30;99.90;;;;;;5056785;28;20040;-62
2022/09/30 13:19:43;;;;;;;15.25;10.05;;;18.80;99.90;;;;;;5056029;28;20174;-62
2022/09/30 13:22:22;;;;;;;14.20;11.52;;;18.00;99.90;;;;;;5057036;28;20061;-62
2022/09/30 13:25:03;;;;;;;14.00;10.73;;;18.00;99.90;;;;;;5056740;28;20056;-62